sensor_id;sensor_type;location;lat;lon;timestamp;P1;P2;P0
62981;PMS5003;49075;53.988;27.678;2022-08-19T00:03:07;50;41.4;29.8
62981;PMS5003;49075;53.988;27.678;2022-08-19T00:08:35;46;39.4;28.2
62981;PMS5003;49075;53.988;27.678;2022-08-19T00:13:07;49.6;41.4;29.2
62981;PMS5003;49075;53.988;27.678;2022-08-19T00:18:07;49;41.4;28.8
62981;PMS5003;49075;53.988;27.678;2022-08-19T00:23:11;51.2;42.4;30.4
62981;PMS5003;49075;53.988;27.678;2022-08-19T00:28:01;50.8;43;30.2
62981;PMS5003;49075;53.988;27.678;2022-08-19T00:33:07;48;40.4;29
62981;PMS5003;49075;53.988;27.678;2022-08-19T00:38:09;48.4;41;28.4
62981;PMS5003;49075;53.988;27.678;2022-08-19T00:43:35;48.4;40.8;29.2
62981;PMS5003;49075;53.988;27.678;2022-08-19T00:48:35;48.2;40.8;29.8
62981;PMS5003;49075;53.988;27.678;2022-08-19T00:53:20;50;41.8;29.4
62981;PMS5003;49075;53.988;27.678;2022-08-19T00:58:35;52.3;43;30.3
62981;PMS5003;49075;53.988;27.678;2022-08-19T01:03:08;53.2;43.6;30.8
62981;PMS5003;49075;53.988;27.678;2022-08-19T01:08:33;49;41.4;29.2
62981;PMS5003;49075;53.988;27.678;2022-08-19T01:13:09;47.4;40;28
62981;PMS5003;49075;53.988;27.678;2022-08-19T01:18:15;50.2;42.6;29.6
62981;PMS5003;49075;53.988;27.678;2022-08-19T01:23:05;47.2;40.4;28.6
62981;PMS5003;49075;53.988;27.678;2022-08-19T01:28:21;49;41.2;29.6
62981;PMS5003;49075;53.988;27.678;2022-08-19T01:33:29;50.2;42.6;29.8
62981;PMS5003;49075;53.988;27.678;2022-08-19T01:38:00;40.8;35.8;25.6
62981;PMS5003;49075;53.988;27.678;2022-08-19T01:43:01;50.2;42.6;30.2
62981;PMS5003;49075;53.988;27.678;2022-08-19T01:48:19;49.8;42.2;30.6
62981;PMS5003;49075;53.988;27.678;2022-08-19T01:53:08;54.6;45.6;32.8
62981;PMS5003;49075;53.988;27.678;2022-08-19T01:58:17;55;45.3;32.3
62981;PMS5003;49075;53.988;27.678;2022-08-19T02:02:59;54;45;31.2
62981;PMS5003;49075;53.988;27.678;2022-08-19T02:08:36;54.6;45.4;31.8
62981;PMS5003;49075;53.988;27.678;2022-08-19T02:13:35;56.8;47;32.6
62981;PMS5003;49075;53.988;27.678;2022-08-19T02:18:01;50.8;42.2;29.4
62981;PMS5003;49075;53.988;27.678;2022-08-19T02:23:09;52;43.4;31
62981;PMS5003;49075;53.988;27.678;2022-08-19T02:28:23;53.4;44.4;31
62981;PMS5003;49075;53.988;27.678;2022-08-19T02:33:09;53.6;44.8;31.2
62981;PMS5003;49075;53.988;27.678;2022-08-19T02:38:09;52.6;43.4;31
62981;PMS5003;49075;53.988;27.678;2022-08-19T02:43:17;49.6;42;29.2
62981;PMS5003;49075;53.988;27.678;2022-08-19T02:48:07;52.2;43.6;30.4
62981;PMS5003;49075;53.988;27.678;2022-08-19T02:53:35;53;44.4;31.2
62981;PMS5003;49075;53.988;27.678;2022-08-19T02:58:11;51;43.2;30.4
62981;PMS5003;49075;53.988;27.678;2022-08-19T03:03:07;54.5;44.5;31.3
62981;PMS5003;49075;53.988;27.678;2022-08-19T03:08:37;53.2;43.8;31.2
62981;PMS5003;49075;53.988;27.678;2022-08-19T03:13:37;54.2;45;31.8
62981;PMS5003;49075;53.988;27.678;2022-08-19T03:18:37;53.4;44;31
62981;PMS5003;49075;53.988;27.678;2022-08-19T03:23:09;52.8;43.8;30.4
62981;PMS5003;49075;53.988;27.678;2022-08-19T03:28:39;52.6;44;31
62981;PMS5003;49075;53.988;27.678;2022-08-19T03:32:59;52.6;44.2;31.2
62981;PMS5003;49075;53.988;27.678;2022-08-19T03:38:41;53.2;44.8;31.6
62981;PMS5003;49075;53.988;27.678;2022-08-19T03:43:11;55.4;46;31.8
62981;PMS5003;49075;53.988;27.678;2022-08-19T03:48:11;52;43.2;31
62981;PMS5003;49075;53.988;27.678;2022-08-19T03:53:09;51.8;43.4;30.6
62981;PMS5003;49075;53.988;27.678;2022-08-19T03:58:09;52.4;44.2;31
62981;PMS5003;49075;53.988;27.678;2022-08-19T04:03:07;55.3;45.5;32
62981;PMS5003;49075;53.988;27.678;2022-08-19T04:08:19;54.8;45.4;32.2
62981;PMS5003;49075;53.988;27.678;2022-08-19T04:13:17;55.8;46;32
62981;PMS5003;49075;53.988;27.678;2022-08-19T04:18:39;54.6;45.2;30.6
62981;PMS5003;49075;53.988;27.678;2022-08-19T04:23:07;52;42.8;30.4
62981;PMS5003;49075;53.988;27.678;2022-08-19T04:28:07;51.2;42.4;29
62981;PMS5003;49075;53.988;27.678;2022-08-19T04:33:09;53.8;44.6;31.2
62981;PMS5003;49075;53.988;27.678;2022-08-19T04:37:59;49.8;41.4;29.6
62981;PMS5003;49075;53.988;27.678;2022-08-19T04:43:17;56.5;46.5;33
62981;PMS5003;49075;53.988;27.678;2022-08-19T04:48:11;52.4;43.6;30.6
62981;PMS5003;49075;53.988;27.678;2022-08-19T04:53:40;55.8;45.8;32.6
62981;PMS5003;49075;53.988;27.678;2022-08-19T04:58:11;53.4;44.6;31.6
62981;PMS5003;49075;53.988;27.678;2022-08-19T05:03:13;46.2;39.6;27.2
62981;PMS5003;49075;53.988;27.678;2022-08-19T05:08:37;52.4;44;31.2
62981;PMS5003;49075;53.988;27.678;2022-08-19T05:13:09;53.6;44.8;32.6
62981;PMS5003;49075;53.988;27.678;2022-08-19T05:18:01;54.2;44.8;32.2
62981;PMS5003;49075;53.988;27.678;2022-08-19T05:23:39;52.3;43.8;30.5
62981;PMS5003;49075;53.988;27.678;2022-08-19T05:28:21;57.5;47.5;33.5
62981;PMS5003;49075;53.988;27.678;2022-08-19T05:33:37;53.6;44.4;31.4
62981;PMS5003;49075;53.988;27.678;2022-08-19T05:38:07;56.2;46.6;32.4
62981;PMS5003;49075;53.988;27.678;2022-08-19T05:43:15;52;43;29
62981;PMS5003;49075;53.988;27.678;2022-08-19T05:48:37;57.6;47;33
62981;PMS5003;49075;53.988;27.678;2022-08-19T05:53:01;57.8;47.6;33.2
62981;PMS5003;49075;53.988;27.678;2022-08-19T05:58:09;59.4;48.4;34
62981;PMS5003;49075;53.988;27.678;2022-08-19T06:08:35;59;48.5;35
62981;PMS5003;49075;53.988;27.678;2022-08-19T06:13:07;59.8;48.8;34.8
62981;PMS5003;49075;53.988;27.678;2022-08-19T06:18:25;58.5;49;33.5
62981;PMS5003;49075;53.988;27.678;2022-08-19T06:23:11;58.5;49;33.5
62981;PMS5003;49075;53.988;27.678;2022-08-19T06:33:09;65;53;39.5
62981;PMS5003;49075;53.988;27.678;2022-08-19T06:38:35;60.3;49.5;35.3
62981;PMS5003;49075;53.988;27.678;2022-08-19T06:43:37;62;50.6;36.2
62981;PMS5003;49075;53.988;27.678;2022-08-19T06:48:37;61.2;50.4;36.6
62981;PMS5003;49075;53.988;27.678;2022-08-19T06:53:35;59.4;49.2;35.8
62981;PMS5003;49075;53.988;27.678;2022-08-19T06:58:07;60.3;49;35
62981;PMS5003;49075;53.988;27.678;2022-08-19T07:03:33;57.2;47.6;34
62981;PMS5003;49075;53.988;27.678;2022-08-19T07:08:35;55;46.2;32.6
62981;PMS5003;49075;53.988;27.678;2022-08-19T07:13:36;57.3;47.8;35.5
62981;PMS5003;49075;53.988;27.678;2022-08-19T07:18:35;56.4;46.8;33
62981;PMS5003;49075;53.988;27.678;2022-08-19T07:23:07;55.8;46.6;34.4
62981;PMS5003;49075;53.988;27.678;2022-08-19T07:28:09;51.4;43.6;32.2
62981;PMS5003;49075;53.988;27.678;2022-08-19T07:33:33;52.2;44;32
62981;PMS5003;49075;53.988;27.678;2022-08-19T07:38:35;49.8;42;30.6
62981;PMS5003;49075;53.988;27.678;2022-08-19T07:43:23;49;41.4;30.8
62981;PMS5003;49075;53.988;27.678;2022-08-19T07:48:33;50.4;42.4;31.6
62981;PMS5003;49075;53.988;27.678;2022-08-19T07:53:21;51.8;43.6;32
62981;PMS5003;49075;53.988;27.678;2022-08-19T07:58:20;56.3;47;36.5
62981;PMS5003;49075;53.988;27.678;2022-08-19T08:03:18;48.4;41.4;31
62981;PMS5003;49075;53.988;27.678;2022-08-19T08:08:13;49.2;41.8;31.2
62981;PMS5003;49075;53.988;27.678;2022-08-19T08:13:07;48.4;41.6;30.8
62981;PMS5003;49075;53.988;27.678;2022-08-19T08:18:35;48;40.6;30.4
62981;PMS5003;49075;53.988;27.678;2022-08-19T08:23:35;53;44.6;33.6
62981;PMS5003;49075;53.988;27.678;2022-08-19T08:28:09;52.4;44;33
62981;PMS5003;49075;53.988;27.678;2022-08-19T08:33:11;49;41.4;30.2
62981;PMS5003;49075;53.988;27.678;2022-08-19T08:38:01;50.6;42.6;31.4
62981;PMS5003;49075;53.988;27.678;2022-08-19T08:43:09;54.6;45.6;34
62981;PMS5003;49075;53.988;27.678;2022-08-19T08:48:18;55.8;46.6;37
62981;PMS5003;49075;53.988;27.678;2022-08-19T08:53:01;49.4;42.2;31.8
62981;PMS5003;49075;53.988;27.678;2022-08-19T08:58:39;50.5;42.8;32
62981;PMS5003;49075;53.988;27.678;2022-08-19T09:03:03;51;42.2;31.6
62981;PMS5003;49075;53.988;27.678;2022-08-19T09:08:38;54.8;45.8;35.4
62981;PMS5003;49075;53.988;27.678;2022-08-19T09:18:09;51.6;43.4;32.8
62981;PMS5003;49075;53.988;27.678;2022-08-19T09:23:35;52.2;43.6;32.2
62981;PMS5003;49075;53.988;27.678;2022-08-19T09:28:35;51.4;43.8;32.8
62981;PMS5003;49075;53.988;27.678;2022-08-19T09:33:09;50.8;42.4;31.8
62981;PMS5003;49075;53.988;27.678;2022-08-19T09:38:35;53.2;44.6;33.4
62981;PMS5003;49075;53.988;27.678;2022-08-19T09:43:35;50.4;42.2;31.2
62981;PMS5003;49075;53.988;27.678;2022-08-19T09:48:36;53;44.4;33.6
62981;PMS5003;49075;53.988;27.678;2022-08-19T09:53:13;51.6;43.6;32.6
62981;PMS5003;49075;53.988;27.678;2022-08-19T09:58:09;54;45.2;34.6
62981;PMS5003;49075;53.988;27.678;2022-08-19T10:03:35;58.3;48.3;37.3
62981;PMS5003;49075;53.988;27.678;2022-08-19T10:08:16;54.6;45.6;34.8
62981;PMS5003;49075;53.988;27.678;2022-08-19T10:13:35;54.2;45.2;34.8
62981;PMS5003;49075;53.988;27.678;2022-08-19T10:18:11;60.2;49.4;38.8
62981;PMS5003;49075;53.988;27.678;2022-08-19T10:23:36;57.8;47.8;36.6
62981;PMS5003;49075;53.988;27.678;2022-08-19T10:28:35;56.8;47.2;35.8
62981;PMS5003;49075;53.988;27.678;2022-08-19T10:33:33;60;49.4;38
62981;PMS5003;49075;53.988;27.678;2022-08-19T10:38:01;57.2;46.6;35
62981;PMS5003;49075;53.988;27.678;2022-08-19T10:43:15;57.8;47.8;35.4
62981;PMS5003;49075;53.988;27.678;2022-08-19T10:48:09;53.6;44.8;33.6
62981;PMS5003;49075;53.988;27.678;2022-08-19T10:53:03;55.4;46.2;34.6
62981;PMS5003;49075;53.988;27.678;2022-08-19T10:58:10;53;43.8;33.6
62981;PMS5003;49075;53.988;27.678;2022-08-19T11:03:16;56.5;46.8;35.3
62981;PMS5003;49075;53.988;27.678;2022-08-19T11:08:17;54;45.2;34
62981;PMS5003;49075;53.988;27.678;2022-08-19T11:13:38;54;44.8;33.2
62981;PMS5003;49075;53.988;27.678;2022-08-19T11:18:13;53.8;45.2;33.4
62981;PMS5003;49075;53.988;27.678;2022-08-19T11:23:35;51;42.6;31.2
62981;PMS5003;49075;53.988;27.678;2022-08-19T11:28:07;55;46;34.4
62981;PMS5003;49075;53.988;27.678;2022-08-19T11:32:59;52.4;44;32.6
62981;PMS5003;49075;53.988;27.678;2022-08-19T11:38:33;53.2;44.6;33.2
62981;PMS5003;49075;53.988;27.678;2022-08-19T11:42:59;52;43.8;31.6
62981;PMS5003;49075;53.988;27.678;2022-08-19T11:48:09;51;43;31.6
62981;PMS5003;49075;53.988;27.678;2022-08-19T11:53:35;48.6;41.6;29.4
62981;PMS5003;49075;53.988;27.678;2022-08-19T11:58:35;50;42.6;31.4
62981;PMS5003;49075;53.988;27.678;2022-08-19T12:03:07;51.5;42.8;30.8
62981;PMS5003;49075;53.988;27.678;2022-08-19T12:08:35;52.8;44;32
62981;PMS5003;49075;53.988;27.678;2022-08-19T12:13:11;51;42.6;30.8
62981;PMS5003;49075;53.988;27.678;2022-08-19T12:18:17;51;43.4;30.6
62981;PMS5003;49075;53.988;27.678;2022-08-19T12:23:08;52;43.8;32
62981;PMS5003;49075;53.988;27.678;2022-08-19T12:28:22;51.8;43;31
62981;PMS5003;49075;53.988;27.678;2022-08-19T12:33:09;51.2;43.2;31.2
62981;PMS5003;49075;53.988;27.678;2022-08-19T12:38:17;49.6;42;30.4
62981;PMS5003;49075;53.988;27.678;2022-08-19T12:43:07;47;40.2;28.2
62981;PMS5003;49075;53.988;27.678;2022-08-19T12:48:37;53.4;44.4;31.8
62981;PMS5003;49075;53.988;27.678;2022-08-19T12:53:37;50.2;42.2;30.2
62981;PMS5003;49075;53.988;27.678;2022-08-19T12:58:11;48;41;29.2
62981;PMS5003;49075;53.988;27.678;2022-08-19T13:03:11;51.3;43.3;30.5
62981;PMS5003;49075;53.988;27.678;2022-08-19T13:08:37;51.2;43;30.6
62981;PMS5003;49075;53.988;27.678;2022-08-19T13:13:38;50.2;42.4;29.6
62981;PMS5003;49075;53.988;27.678;2022-08-19T13:18:08;45.4;38.6;28.2
62981;PMS5003;49075;53.988;27.678;2022-08-19T13:23:15;50;41.8;29.8
62981;PMS5003;49075;53.988;27.678;2022-08-19T13:28:09;49.6;41.8;30.2
62981;PMS5003;49075;53.988;27.678;2022-08-19T13:33:05;51.2;43.4;30.6
62981;PMS5003;49075;53.988;27.678;2022-08-19T13:38:18;59.6;49;34.8
62981;PMS5003;49075;53.988;27.678;2022-08-19T13:43:11;55;46.2;33
62981;PMS5003;49075;53.988;27.678;2022-08-19T13:48:17;50.4;41.8;30.4
62981;PMS5003;49075;53.988;27.678;2022-08-19T13:53:39;51.8;43;30.6
62981;PMS5003;49075;53.988;27.678;2022-08-19T13:58:07;49.2;41.4;29.6
62981;PMS5003;49075;53.988;27.678;2022-08-19T14:03:23;51.4;43;31.2
62981;PMS5003;49075;53.988;27.678;2022-08-19T14:08:37;50.8;42.8;30.8
62981;PMS5003;49075;53.988;27.678;2022-08-19T14:13:18;46.4;39.6;28.6
62981;PMS5003;49075;53.988;27.678;2022-08-19T14:18:01;50.6;42.6;30.6
62981;PMS5003;49075;53.988;27.678;2022-08-19T14:23:07;48.6;41.2;30
62981;PMS5003;49075;53.988;27.678;2022-08-19T14:28:35;48.2;41;29.4
62981;PMS5003;49075;53.988;27.678;2022-08-19T14:33:33;49.6;42;30.8
62981;PMS5003;49075;53.988;27.678;2022-08-19T14:38:14;48;40.4;28.6
62981;PMS5003;49075;53.988;27.678;2022-08-19T14:43:35;48;41.2;29.2
62981;PMS5003;49075;53.988;27.678;2022-08-19T14:48:07;47.6;39.8;28.4
62981;PMS5003;49075;53.988;27.678;2022-08-19T14:53:07;47.6;39.4;28.6
62981;PMS5003;49075;53.988;27.678;2022-08-19T14:58:01;50.8;41.8;29.8
62981;PMS5003;49075;53.988;27.678;2022-08-19T15:03:35;48;40.6;29.6
62981;PMS5003;49075;53.988;27.678;2022-08-19T15:08:35;49.8;42.3;30
62981;PMS5003;49075;53.988;27.678;2022-08-19T15:13:35;45.2;38.8;28.2
62981;PMS5003;49075;53.988;27.678;2022-08-19T15:18:07;47.2;40.4;29.4
62981;PMS5003;49075;53.988;27.678;2022-08-19T15:23:07;43.2;37.6;27.8
62981;PMS5003;49075;53.988;27.678;2022-08-19T15:28:11;44.4;37.8;27.8
62981;PMS5003;49075;53.988;27.678;2022-08-19T15:33:34;44.6;38.2;27.8
62981;PMS5003;49075;53.988;27.678;2022-08-19T15:38:07;43.6;37.2;27.2
62981;PMS5003;49075;53.988;27.678;2022-08-19T15:43:36;35.8;32.4;23.4
62981;PMS5003;49075;53.988;27.678;2022-08-19T15:48:36;43;37;27.3
62981;PMS5003;49075;53.988;27.678;2022-08-19T15:53:05;44;37.6;28
62981;PMS5003;49075;53.988;27.678;2022-08-19T15:58:12;43.3;38;28.3
62981;PMS5003;49075;53.988;27.678;2022-08-19T16:03:33;48.4;41;29.2
62981;PMS5003;49075;53.988;27.678;2022-08-19T16:08:35;40.6;36;26.4
62981;PMS5003;49075;53.988;27.678;2022-08-19T16:13:15;43.3;37.5;27.5
62981;PMS5003;49075;53.988;27.678;2022-08-19T16:18:01;45;39;28.8
62981;PMS5003;49075;53.988;27.678;2022-08-19T16:23:35;37.6;33.8;25.2
62981;PMS5003;49075;53.988;27.678;2022-08-19T16:28:07;35.2;31.4;23.8
62981;PMS5003;49075;53.988;27.678;2022-08-19T16:33:35;40.8;36;26.4
62981;PMS5003;49075;53.988;27.678;2022-08-19T16:38:07;34.2;31.8;24.4
62981;PMS5003;49075;53.988;27.678;2022-08-19T16:43:09;40.3;34.8;26.8
62981;PMS5003;49075;53.988;27.678;2022-08-19T16:48:36;39;34.3;25.8
62981;PMS5003;49075;53.988;27.678;2022-08-19T16:53:01;36.8;33.6;25.6
62981;PMS5003;49075;53.988;27.678;2022-08-19T16:58:13;40.2;35.4;26
62981;PMS5003;49075;53.988;27.678;2022-08-19T17:03:04;37;33.4;25
62981;PMS5003;49075;53.988;27.678;2022-08-19T17:08:18;35.3;32.8;24.5
62981;PMS5003;49075;53.988;27.678;2022-08-19T17:13:01;40.4;35.4;26.4
62981;PMS5003;49075;53.988;27.678;2022-08-19T17:18:17;45.6;38.6;27.8
62981;PMS5003;49075;53.988;27.678;2022-08-19T17:23:35;39.2;34.4;26
62981;PMS5003;49075;53.988;27.678;2022-08-19T17:28:08;46.2;41.8;30.4
62981;PMS5003;49075;53.988;27.678;2022-08-19T17:33:33;72.8;64;43
62981;PMS5003;49075;53.988;27.678;2022-08-19T17:38:33;60.4;54;37
62981;PMS5003;49075;53.988;27.678;2022-08-19T17:43:15;45.8;39.2;28.6
62981;PMS5003;49075;53.988;27.678;2022-08-19T17:48:35;42.5;36.8;27.5
62981;PMS5003;49075;53.988;27.678;2022-08-19T17:53:35;33.8;30.8;23.4
62981;PMS5003;49075;53.988;27.678;2022-08-19T17:58:35;41.6;36.6;26.8
62981;PMS5003;49075;53.988;27.678;2022-08-19T18:03:09;46.6;40;28.2
62981;PMS5003;49075;53.988;27.678;2022-08-19T18:08:07;43.4;38;28.4
62981;PMS5003;49075;53.988;27.678;2022-08-19T18:13:35;36.4;33;25.4
62981;PMS5003;49075;53.988;27.678;2022-08-19T18:18:07;40.2;35.2;26.2
62981;PMS5003;49075;53.988;27.678;2022-08-19T18:23:35;44.4;37.8;27.2
62981;PMS5003;49075;53.988;27.678;2022-08-19T18:28:13;51.8;43.4;30.8
62981;PMS5003;49075;53.988;27.678;2022-08-19T18:33:07;37.4;33.6;25
62981;PMS5003;49075;53.988;27.678;2022-08-19T18:38:07;38.8;34.2;25.4
62981;PMS5003;49075;53.988;27.678;2022-08-19T18:43:07;49.8;42;30.4
62981;PMS5003;49075;53.988;27.678;2022-08-19T18:48:01;40;35.5;25.5
62981;PMS5003;49075;53.988;27.678;2022-08-19T18:53:11;51;45.8;33.6
62981;PMS5003;49075;53.988;27.678;2022-08-19T18:58:07;48.4;40.8;28.6
62981;PMS5003;49075;53.988;27.678;2022-08-19T19:03:11;44.4;38.2;27.4
62981;PMS5003;49075;53.988;27.678;2022-08-19T19:08:35;47.2;40;29.6
62981;PMS5003;49075;53.988;27.678;2022-08-19T19:13:35;41.4;36.2;27.2
62981;PMS5003;49075;53.988;27.678;2022-08-19T19:18:09;45.6;39;27.6
62981;PMS5003;49075;53.988;27.678;2022-08-19T19:23:01;56.4;48.8;34.4
62981;PMS5003;49075;53.988;27.678;2022-08-19T19:28:35;42.2;36.6;27.8
62981;PMS5003;49075;53.988;27.678;2022-08-19T19:33:33;41.6;35.8;26.4
62981;PMS5003;49075;53.988;27.678;2022-08-19T19:38:33;43.2;36.8;26.6
62981;PMS5003;49075;53.988;27.678;2022-08-19T19:43:17;41.8;36.6;26.8
62981;PMS5003;49075;53.988;27.678;2022-08-19T19:48:07;36;33;25.3
62981;PMS5003;49075;53.988;27.678;2022-08-19T19:53:35;42;36.4;27.4
62981;PMS5003;49075;53.988;27.678;2022-08-19T19:58:07;38.8;34.4;26
62981;PMS5003;49075;53.988;27.678;2022-08-19T20:03:31;37.2;33.2;25.2
62981;PMS5003;49075;53.988;27.678;2022-08-19T20:08:11;53.4;44.8;31.8
62981;PMS5003;49075;53.988;27.678;2022-08-19T20:13:33;38.6;34.4;24.6
62981;PMS5003;49075;53.988;27.678;2022-08-19T20:18:07;44.6;38.2;28
62981;PMS5003;49075;53.988;27.678;2022-08-19T20:23:01;40.6;35.8;26.4
62981;PMS5003;49075;53.988;27.678;2022-08-19T20:28:33;40.6;36.2;27.4
62981;PMS5003;49075;53.988;27.678;2022-08-19T20:33:33;44;37.8;27
62981;PMS5003;49075;53.988;27.678;2022-08-19T20:38:11;43.6;37.8;28.2
62981;PMS5003;49075;53.988;27.678;2022-08-19T20:43:36;45.4;38.8;27.6
62981;PMS5003;49075;53.988;27.678;2022-08-19T20:48:07;43.8;37;26.8
62981;PMS5003;49075;53.988;27.678;2022-08-19T20:53:36;42;36.6;26
62981;PMS5003;49075;53.988;27.678;2022-08-19T20:58:35;47;39.6;28
62981;PMS5003;49075;53.988;27.678;2022-08-19T21:03:07;47.6;40.4;29.2
62981;PMS5003;49075;53.988;27.678;2022-08-19T21:08:07;49;41.8;30.6
62981;PMS5003;49075;53.988;27.678;2022-08-19T21:13:35;44;38;27.8
62981;PMS5003;49075;53.988;27.678;2022-08-19T21:18:12;46.8;39.8;28.6
62981;PMS5003;49075;53.988;27.678;2022-08-19T21:23:35;47.8;40.6;29.2
62981;PMS5003;49075;53.988;27.678;2022-08-19T21:28:17;48.6;41;30.4
62981;PMS5003;49075;53.988;27.678;2022-08-19T21:33:09;46.6;39.4;28.6
62981;PMS5003;49075;53.988;27.678;2022-08-19T21:38:03;43.6;37.4;27.4
62981;PMS5003;49075;53.988;27.678;2022-08-19T21:43:35;43.2;37.6;27.8
62981;PMS5003;49075;53.988;27.678;2022-08-19T21:48:33;45.2;39;27.8
62981;PMS5003;49075;53.988;27.678;2022-08-19T21:53:15;48.8;41;29.5
62981;PMS5003;49075;53.988;27.678;2022-08-19T21:58:05;47;40.2;28.4
62981;PMS5003;49075;53.988;27.678;2022-08-19T22:03:34;48.6;41;29.2
62981;PMS5003;49075;53.988;27.678;2022-08-19T22:08:05;48;40.8;29.2
62981;PMS5003;49075;53.988;27.678;2022-08-19T22:13:34;45.4;38.6;28
62981;PMS5003;49075;53.988;27.678;2022-08-19T22:18:35;44.6;38.2;27.8
62981;PMS5003;49075;53.988;27.678;2022-08-19T22:23:07;42.2;37;26.8
62981;PMS5003;49075;53.988;27.678;2022-08-19T22:28:06;55.4;47.2;34
62981;PMS5003;49075;53.988;27.678;2022-08-19T22:33:27;68.2;57.4;41.4
62981;PMS5003;49075;53.988;27.678;2022-08-19T22:38:09;54.2;45;32.6
62981;PMS5003;49075;53.988;27.678;2022-08-19T22:43:31;66;55.5;40
62981;PMS5003;49075;53.988;27.678;2022-08-19T22:48:31;62.2;51.2;36.2
62981;PMS5003;49075;53.988;27.678;2022-08-19T22:53:32;55;45.6;31.6
62981;PMS5003;49075;53.988;27.678;2022-08-19T22:58:11;48;40.8;29.6
62981;PMS5003;49075;53.988;27.678;2022-08-19T23:03:29;44.2;37.6;27.8
62981;PMS5003;49075;53.988;27.678;2022-08-19T23:08:29;50.2;42.4;30.4
62981;PMS5003;49075;53.988;27.678;2022-08-19T23:13:05;43.4;37.2;27.2
62981;PMS5003;49075;53.988;27.678;2022-08-19T23:18:31;45.6;38.6;27.6
62981;PMS5003;49075;53.988;27.678;2022-08-19T23:23:09;48.6;41.4;28.8
62981;PMS5003;49075;53.988;27.678;2022-08-19T23:28:09;45;38.6;27.8
62981;PMS5003;49075;53.988;27.678;2022-08-19T23:33:31;47.2;39.8;28.2
62981;PMS5003;49075;53.988;27.678;2022-08-19T23:38:31;45.6;38.8;27.6
62981;PMS5003;49075;53.988;27.678;2022-08-19T23:43:31;49.3;42;30
62981;PMS5003;49075;53.988;27.678;2022-08-19T23:48:06;47.8;40.4;29.2
62981;PMS5003;49075;53.988;27.678;2022-08-19T23:53:31;48.4;40.8;29.2
62981;PMS5003;49075;53.988;27.678;2022-08-19T23:58:12;47.8;40.6;29
